createdAt,value
2024-03-10T00:00:35.765Z,87.08
2024-03-10T00:03:08.184Z,88.01
2024-03-10T00:05:40.177Z,89.46
2024-03-10T00:08:13.572Z,91.43
2024-03-10T00:10:44.592Z,98.11
2024-03-10T00:13:15.696Z,100.00
2024-03-10T00:15:46.317Z,97.91
2024-03-10T00:18:17.832Z,97.77
2024-03-10T00:20:48.572Z,92.22
2024-03-10T00:23:21.756Z,97.69
2024-03-10T00:25:52.333Z,97.67
2024-03-10T00:28:22.864Z,95.70
2024-03-10T00:30:53.615Z,98.05
2024-03-10T00:33:24.311Z,96.83
2024-03-10T00:35:55.098Z,98.70
2024-03-10T00:38:29.141Z,98.93
2024-03-10T00:41:00.231Z,98.58
2024-03-10T00:43:30.968Z,95.81
2024-03-10T00:46:01.502Z,96.80
2024-03-10T00:48:32.099Z,94.69
2024-03-10T00:51:02.863Z,89.99
2024-03-10T00:53:36.026Z,92.33
2024-03-10T00:56:06.842Z,93.16
2024-03-10T00:58:37.408Z,96.46
2024-03-10T01:01:08.556Z,90.91
2024-03-10T01:03:39.152Z,88.07
2024-03-10T01:06:09.753Z,86.25
2024-03-10T01:08:42.999Z,90.72
2024-03-10T01:11:13.743Z,87.74
2024-03-10T01:13:44.944Z,89.18
2024-03-10T01:16:15.785Z,83.16
2024-03-10T01:18:47.592Z,89.73
2024-03-10T01:21:18.280Z,88.31
2024-03-10T01:23:53.639Z,85.39
2024-03-10T01:26:24.286Z,87.24
2024-03-10T01:28:55.100Z,85.88
2024-03-10T01:31:27.341Z,79.54
2024-03-10T01:33:57.996Z,86.73
2024-03-10T01:36:28.805Z,85.01
2024-03-10T01:39:03.006Z,80.04
2024-03-10T01:41:33.713Z,78.68
2024-03-10T01:44:04.350Z,79.33
2024-03-10T01:46:37.619Z,79.53
2024-03-10T01:49:08.962Z,78.88
2024-03-10T01:51:41.291Z,75.48
2024-03-10T01:54:17.148Z,76.39
2024-03-10T01:56:48.052Z,77.47
2024-03-10T01:59:19.335Z,72.51
2024-03-10T02:01:50.031Z,74.36
2024-03-10T02:09:23.530Z,70.31
2024-03-10T02:11:54.426Z,75.70
2024-03-10T02:14:26.693Z,72.12
2024-03-10T02:16:57.320Z,68.14
2024-03-10T02:19:28.413Z,68.41
2024-03-10T02:21:59.778Z,74.01
2024-03-10T02:24:36.588Z,71.48
2024-03-10T02:27:17.098Z,75.32
2024-03-10T02:30:01.776Z,70.76
2024-03-10T02:32:45.221Z,73.30
2024-03-10T02:35:28.407Z,67.63
2024-03-10T02:38:11.535Z,69.07
2024-03-10T02:40:54.558Z,70.75
2024-03-10T02:43:40.194Z,66.88
2024-03-10T02:46:23.154Z,72.29
2024-03-10T02:48:54.972Z,69.98
2024-03-10T02:51:25.643Z,73.46
2024-03-10T02:53:56.230Z,69.01
2024-03-10T02:56:27.140Z,68.39
2024-03-10T02:59:00.359Z,65.95
2024-03-10T03:01:31.504Z,72.17
2024-03-10T03:04:02.102Z,68.09
2024-03-10T03:06:32.601Z,66.51
2024-03-10T03:09:05.391Z,69.21
2024-03-10T03:11:38.761Z,70.27
2024-03-10T03:14:15.071Z,68.13
2024-03-10T03:16:46.281Z,68.40
2024-03-10T03:19:17.038Z,74.37
2024-03-10T03:21:44.781Z,80.48
2024-03-10T03:24:12.110Z,73.81
2024-03-10T03:26:43.909Z,80.87
2024-03-10T03:29:17.246Z,74.36
2024-03-10T03:31:47.812Z,76.28
2024-03-10T03:34:18.499Z,69.92
2024-03-10T03:36:49.028Z,72.13
2024-03-10T03:39:21.102Z,72.44
2024-03-10T03:41:51.661Z,73.29
2024-03-10T03:44:25.214Z,74.24
2024-03-10T03:46:55.827Z,76.97
2024-03-10T03:49:26.288Z,82.52
2024-03-10T03:51:56.764Z,79.44
2024-03-10T03:54:27.335Z,78.03
2024-03-10T03:56:58.726Z,77.76
2024-03-10T03:59:31.863Z,88.51
2024-03-10T04:02:02.624Z,80.47
2024-03-10T04:04:33.375Z,79.48
2024-03-10T04:07:04.156Z,80.51
2024-03-10T04:09:35.636Z,82.96
2024-03-10T04:12:06.465Z,82.66
2024-03-10T04:14:40.622Z,94.93
2024-03-10T04:17:11.818Z,89.26
2024-03-10T04:19:42.335Z,96.34
2024-03-10T04:22:13.890Z,95.33
2024-03-10T04:24:44.587Z,96.09
2024-03-10T04:27:15.078Z,89.44
2024-03-10T04:29:49.027Z,92.85
2024-03-10T04:32:19.665Z,90.29
2024-03-10T04:34:51.716Z,91.45
2024-03-10T04:37:23.779Z,97.53
2024-03-10T04:39:54.597Z,97.68
2024-03-10T04:42:25.374Z,100.00
2024-03-10T04:45:00.396Z,100.00
2024-03-10T04:47:31.018Z,100.00
2024-03-10T04:50:01.713Z,100.00
2024-03-10T04:52:32.332Z,100.00
2024-03-10T04:55:02.845Z,100.00
2024-03-10T04:57:34.486Z,100.00
2024-03-10T05:00:11.515Z,100.00
2024-03-10T05:02:42.316Z,100.00
2024-03-10T05:10:12.857Z,99.43
2024-03-10T05:12:43.462Z,100.00
2024-03-10T05:15:17.439Z,100.00
2024-03-10T05:17:48.444Z,100.00
2024-03-10T05:20:23.092Z,100.00
2024-03-10T05:22:56.523Z,100.00
2024-03-10T05:25:27.194Z,97.66
2024-03-10T05:27:57.657Z,100.00
2024-03-10T05:30:32.436Z,100.00
2024-03-10T05:33:03.013Z,100.00
2024-03-10T05:35:33.674Z,98.28
2024-03-10T05:38:04.924Z,98.18
2024-03-10T05:40:36.113Z,98.16
2024-03-10T05:43:06.878Z,99.77
2024-03-10T05:45:39.998Z,99.74
2024-03-10T05:48:12.554Z,100.00
2024-03-10T05:50:43.212Z,100.00
2024-03-10T05:53:15.249Z,100.00
2024-03-10T05:55:45.821Z,98.84
2024-03-10T05:58:17.918Z,100.00
2024-03-10T06:00:52.253Z,100.00
2024-03-10T06:03:23.731Z,100.00
2024-03-10T06:05:54.825Z,100.00
2024-03-10T06:10:55.773Z,100.00
2024-03-10T06:13:26.361Z,100.00
2024-03-10T06:15:59.538Z,100.00
2024-03-10T06:18:33.319Z,100.00
2024-03-10T06:21:16.563Z,100.00
2024-03-10T06:23:59.780Z,100.00
2024-03-10T06:26:30.285Z,100.00
2024-03-10T06:29:02.441Z,100.00
2024-03-10T06:31:35.658Z,100.00
2024-03-10T06:34:06.145Z,100.00
2024-03-10T06:36:37.056Z,100.00
2024-03-10T06:39:07.794Z,100.00
2024-03-10T06:41:40.137Z,100.00
2024-03-10T06:44:10.724Z,100.00
2024-03-10T06:46:45.651Z,100.00
2024-03-10T06:49:16.209Z,100.00
2024-03-10T06:51:46.821Z,100.00
2024-03-10T06:54:17.478Z,100.00
2024-03-10T06:56:48.034Z,100.00
2024-03-10T06:59:19.002Z,95.90
2024-03-10T07:01:55.582Z,91.97
2024-03-10T07:04:28.093Z,90.25
2024-03-10T07:06:58.600Z,97.03
2024-03-10T07:09:29.283Z,94.08
2024-03-10T07:12:00.181Z,97.72
2024-03-10T07:14:30.872Z,100.00
2024-03-10T07:17:05.342Z,100.00
2024-03-10T07:19:37.453Z,100.00
2024-03-10T07:22:08.233Z,100.00
2024-03-10T07:24:39.325Z,100.00
2024-03-10T07:27:10.450Z,100.00
2024-03-10T07:29:41.119Z,100.00
2024-03-10T07:32:14.285Z,100.00
2024-03-10T07:34:48.289Z,100.00
2024-03-10T07:37:19.237Z,100.00
2024-03-10T07:39:49.755Z,100.00
2024-03-10T07:42:20.234Z,96.66
2024-03-10T07:44:50.829Z,94.85
2024-03-10T07:47:24.350Z,96.23
2024-03-10T07:49:55.056Z,91.17
2024-03-10T07:52:25.595Z,85.04
2024-03-10T07:54:56.134Z,87.02
2024-03-10T07:57:26.633Z,80.15
2024-03-10T07:59:57.245Z,66.57
2024-03-10T08:02:30.540Z,62.00
2024-03-10T08:05:01.456Z,57.95
2024-03-10T08:07:32.111Z,55.32
2024-03-10T08:10:03.530Z,59.76
2024-03-10T08:12:34.110Z,61.07
2024-03-10T08:15:04.999Z,60.15
2024-03-10T08:17:38.217Z,59.47
2024-03-10T08:20:10.310Z,58.74
2024-03-10T08:22:41.197Z,58.98
2024-03-10T08:25:12.393Z,58.35
2024-03-10T08:27:43.175Z,58.29
2024-03-10T08:30:17.794Z,60.25
2024-03-10T08:32:51.539Z,60.23
2024-03-10T08:35:22.290Z,60.01
2024-03-10T08:37:52.904Z,56.00
2024-03-10T08:40:23.631Z,56.62
2024-03-10T08:42:54.246Z,55.83
2024-03-10T08:45:25.300Z,49.46
2024-03-10T08:47:58.632Z,48.53
2024-03-10T08:50:29.882Z,51.21
2024-03-10T08:53:00.668Z,49.43
2024-03-10T08:55:31.177Z,48.48
2024-03-10T08:58:02.293Z,47.78
2024-03-10T09:00:33.146Z,48.55
2024-03-10T09:03:07.818Z,51.78
2024-03-10T09:05:38.473Z,51.69
2024-03-10T09:08:11.213Z,51.02
2024-03-10T09:10:52.748Z,48.21
2024-03-10T09:18:30.160Z,48.08
2024-03-10T09:21:00.844Z,49.71
2024-03-10T09:23:32.183Z,50.44
2024-03-10T09:26:04.528Z,50.58
2024-03-10T09:28:36.018Z,49.69
2024-03-10T09:31:10.693Z,49.70
2024-03-10T09:33:47.615Z,49.54
2024-03-10T09:36:18.878Z,46.96
2024-03-10T09:38:49.899Z,47.41
2024-03-10T09:41:22.422Z,45.85
2024-03-10T09:43:54.866Z,44.96
2024-03-10T09:46:25.567Z,45.88
2024-03-10T09:48:59.138Z,45.39
2024-03-10T09:51:32.149Z,46.63
2024-03-10T09:54:03.434Z,46.97
2024-03-10T09:56:36.657Z,46.61
2024-03-10T09:59:08.986Z,45.16
2024-03-10T10:01:40.389Z,42.85
2024-03-10T10:04:15.315Z,42.94
2024-03-10T10:06:47.902Z,45.24
2024-03-10T10:09:19.423Z,45.55
2024-03-10T10:11:50.213Z,43.98
2024-03-10T10:14:24.797Z,44.03
2024-03-10T10:16:57.511Z,43.99
2024-03-10T10:19:33.522Z,43.92
2024-03-10T10:22:07.454Z,43.71
2024-03-10T10:24:38.223Z,43.65
2024-03-10T10:27:10.770Z,43.00
2024-03-10T10:29:53.710Z,44.61
2024-03-10T10:32:26.154Z,46.30
2024-03-10T10:35:01.765Z,45.61
2024-03-10T10:37:35.777Z,46.78
2024-03-10T10:40:12.767Z,45.70
2024-03-10T10:42:53.957Z,46.42
2024-03-10T10:45:32.299Z,45.90
2024-03-10T10:48:03.941Z,45.75
2024-03-10T10:50:39.393Z,46.28
2024-03-10T10:53:13.579Z,45.64
2024-03-10T10:55:46.976Z,45.47
2024-03-10T10:58:22.748Z,44.99
2024-03-10T11:00:54.608Z,45.06
2024-03-10T11:03:28.116Z,45.85
2024-03-10T11:06:32.869Z,46.95
2024-03-10T11:09:15.383Z,46.83
2024-03-10T11:11:53.799Z,45.49
2024-03-10T11:14:29.283Z,45.72
2024-03-10T11:17:18.331Z,46.46
2024-03-10T11:19:50.488Z,46.03
2024-03-10T11:22:29.888Z,45.49
2024-03-10T11:25:18.306Z,46.91
2024-03-10T11:27:50.178Z,47.14
2024-03-10T11:30:50.720Z,48.16
2024-03-10T11:33:28.658Z,47.07
2024-03-10T11:36:01.683Z,47.67
2024-03-10T11:38:35.465Z,47.25
2024-03-10T11:41:10.163Z,47.27
2024-03-10T11:43:43.314Z,47.63
2024-03-10T11:46:26.244Z,47.42
2024-03-10T11:48:57.828Z,47.63
2024-03-10T11:51:30.431Z,46.79
2024-03-10T11:54:05.382Z,46.51
2024-03-10T11:56:36.333Z,45.58
2024-03-10T11:59:07.720Z,48.17
2024-03-10T12:01:38.402Z,47.14
2024-03-10T12:04:10.968Z,45.12
2024-03-10T12:06:41.977Z,43.46
2024-03-10T12:09:22.513Z,42.57
2024-03-10T12:11:53.316Z,43.63
2024-03-10T12:14:24.062Z,43.89
2024-03-10T12:16:54.677Z,43.59
2024-03-10T12:19:27.565Z,44.18
2024-03-10T12:21:59.241Z,43.72
2024-03-10T12:24:34.147Z,43.21
2024-03-10T12:27:09.075Z,43.53
2024-03-10T12:29:49.197Z,43.18
2024-03-10T12:32:20.039Z,42.83
2024-03-10T12:34:50.573Z,42.76
2024-03-10T12:37:21.550Z,43.34
2024-03-10T12:40:02.355Z,45.01
2024-03-10T12:42:36.216Z,45.62
2024-03-10T12:45:09.606Z,46.65
2024-03-10T12:47:41.514Z,47.47
2024-03-10T12:50:11.844Z,47.19
2024-03-10T12:52:43.700Z,47.60
2024-03-10T12:55:17.225Z,47.92
2024-03-10T12:57:48.550Z,47.58
2024-03-10T13:00:30.579Z,48.05
2024-03-10T13:03:02.153Z,49.20
2024-03-10T13:05:32.952Z,50.02
2024-03-10T13:08:03.981Z,49.95
2024-03-10T13:10:37.183Z,50.29
2024-03-10T13:13:09.301Z,49.84
2024-03-10T13:15:41.731Z,51.78
2024-03-10T13:18:15.980Z,52.57
2024-03-10T13:20:48.364Z,54.33
2024-03-10T13:23:19.063Z,56.23
2024-03-10T13:25:52.450Z,55.85
2024-03-10T13:28:24.185Z,57.35
2024-03-10T13:30:54.797Z,59.29
2024-03-10T13:33:25.762Z,59.86
2024-03-10T13:36:06.408Z,60.86
2024-03-10T13:38:44.446Z,62.21
2024-03-10T13:41:17.934Z,62.73
2024-03-10T13:43:49.016Z,63.04
2024-03-10T13:46:19.677Z,63.09
2024-03-10T13:48:50.542Z,63.10
2024-03-10T13:51:21.724Z,62.86
2024-03-10T13:53:53.113Z,62.92
2024-03-10T13:56:27.131Z,63.32
2024-03-10T13:58:57.908Z,64.05
2024-03-10T14:01:28.696Z,63.05
2024-03-10T14:04:00.071Z,62.89
2024-03-10T14:06:32.688Z,63.13
2024-03-10T14:11:29.823Z,69.67
2024-03-10T14:13:57.780Z,71.40
2024-03-10T14:16:25.743Z,72.67
2024-03-10T14:18:53.606Z,73.39
2024-03-10T14:21:21.548Z,72.51
2024-03-10T14:23:49.352Z,71.79
2024-03-10T14:28:46.559Z,70.70
2024-03-10T14:31:14.332Z,69.06
2024-03-10T14:33:42.324Z,70.01
2024-03-10T14:36:10.201Z,71.66
2024-03-10T14:38:39.884Z,70.95
2024-03-10T14:41:07.985Z,68.46
2024-03-10T14:43:35.863Z,68.77
2024-03-10T14:46:06.385Z,70.30
2024-03-10T14:48:34.283Z,69.72
2024-03-10T14:51:02.208Z,68.97
2024-03-10T14:53:30.050Z,66.97
2024-03-10T14:55:58.086Z,67.12
2024-03-10T14:58:25.919Z,67.83
2024-03-10T15:00:54.008Z,66.58
2024-03-10T15:03:24.611Z,67.37
2024-03-10T15:05:53.081Z,67.83
2024-03-10T15:08:21.154Z,68.92
2024-03-10T15:10:49.884Z,69.25
2024-03-10T15:13:22.450Z,70.08
2024-03-10T15:15:54.292Z,67.59
2024-03-10T15:18:28.569Z,69.99
2024-03-10T15:21:00.576Z,72.01
2024-03-10T15:23:31.387Z,74.82
2024-03-10T15:26:06.273Z,76.77
2024-03-10T15:28:39.272Z,78.87
2024-03-10T15:31:09.920Z,79.21
2024-03-10T15:33:43.147Z,79.75
2024-03-10T15:36:16.916Z,80.25
2024-03-10T15:38:49.039Z,80.85
2024-03-10T15:41:20.666Z,82.55
2024-03-10T15:43:51.309Z,81.90
2024-03-10T15:46:21.878Z,82.26
2024-03-10T15:48:55.044Z,82.73
2024-03-10T15:51:25.634Z,83.70
2024-03-10T15:53:56.210Z,84.57
2024-03-10T15:56:27.130Z,86.46
2024-03-10T15:58:57.867Z,86.29
2024-03-10T16:01:28.612Z,86.23
2024-03-10T16:04:05.467Z,88.01
2024-03-10T16:06:36.267Z,86.68
2024-03-10T16:09:12.030Z,86.12
2024-03-10T16:11:44.716Z,85.57
2024-03-10T16:14:19.120Z,85.20
2024-03-10T16:16:51.443Z,85.59
2024-03-10T16:19:26.002Z,85.91
2024-03-10T16:21:56.593Z,87.89
2024-03-10T16:24:30.502Z,89.12
2024-03-10T16:31:59.868Z,90.95
2024-03-10T16:34:33.108Z,92.11
2024-03-10T16:37:06.381Z,93.81
2024-03-10T16:39:36.980Z,93.45
2024-03-10T16:42:10.372Z,95.66
2024-03-10T16:44:42.405Z,95.59
2024-03-10T16:47:13.132Z,97.52
2024-03-10T16:49:50.900Z,97.84
2024-03-10T16:52:20.776Z,98.81
2024-03-10T16:54:51.285Z,100.00
2024-03-10T16:57:21.853Z,100.00
2024-03-10T16:59:52.974Z,100.00
2024-03-10T17:02:23.652Z,100.00
2024-03-10T17:04:56.816Z,100.00
2024-03-10T17:07:27.511Z,100.00
2024-03-10T17:09:58.049Z,100.00
2024-03-10T17:12:28.621Z,100.00
2024-03-10T17:14:59.256Z,100.00
2024-03-10T17:17:30.755Z,100.00
2024-03-10T17:20:07.595Z,100.00
2024-03-10T17:22:38.701Z,100.00
2024-03-10T17:25:10.433Z,100.00
2024-03-10T17:27:41.529Z,100.00
2024-03-10T17:30:17.238Z,100.00
2024-03-10T17:32:52.560Z,100.00
2024-03-10T17:35:28.007Z,100.00
2024-03-10T17:37:59.536Z,100.00
2024-03-10T17:40:31.085Z,100.00
2024-03-10T17:43:01.759Z,100.00
2024-03-10T17:45:32.697Z,100.00
2024-03-10T17:48:04.124Z,100.00
2024-03-10T17:50:41.374Z,100.00
2024-03-10T17:53:12.381Z,100.00
2024-03-10T17:55:44.306Z,100.00
2024-03-10T17:58:15.192Z,100.00
2024-03-10T18:00:48.623Z,100.00
2024-03-10T18:03:19.589Z,100.00
2024-03-10T18:05:52.938Z,100.00
2024-03-10T18:08:25.296Z,100.00
2024-03-10T18:10:58.444Z,100.00
2024-03-10T18:13:29.117Z,100.00
2024-03-10T18:15:59.686Z,100.00
2024-03-10T18:18:30.280Z,100.00
2024-03-10T18:21:05.004Z,100.00
2024-03-10T18:23:35.649Z,100.00
2024-03-10T18:26:07.977Z,100.00
2024-03-10T18:28:39.693Z,100.00
2024-03-10T18:33:40.712Z,100.00
2024-03-10T18:36:14.060Z,100.00
2024-03-10T18:38:45.883Z,100.00
2024-03-10T18:41:16.537Z,100.00
2024-03-10T18:43:47.491Z,100.00
2024-03-10T18:46:18.762Z,100.00
2024-03-10T18:48:49.510Z,100.00
2024-03-10T18:51:23.016Z,100.00
2024-03-10T18:53:53.982Z,100.00
2024-03-10T18:56:24.813Z,100.00
2024-03-10T18:58:55.579Z,100.00
2024-03-10T19:01:26.323Z,100.00
2024-03-10T19:03:56.935Z,100.00
2024-03-10T19:06:30.552Z,100.00
2024-03-10T19:09:01.141Z,100.00
2024-03-10T19:11:31.701Z,100.00
2024-03-10T19:14:02.372Z,100.00
2024-03-10T19:16:32.928Z,100.00
2024-03-10T19:19:03.451Z,100.00
2024-03-10T19:21:36.854Z,100.00
2024-03-10T19:24:07.871Z,100.00
2024-03-10T19:26:38.449Z,100.00
2024-03-10T19:29:10.630Z,100.00
2024-03-10T19:31:41.249Z,100.00
2024-03-10T19:34:11.766Z,100.00
2024-03-10T19:36:44.930Z,100.00
2024-03-10T19:39:15.565Z,100.00
2024-03-10T19:41:46.221Z,100.00
2024-03-10T19:44:18.090Z,100.00
2024-03-10T19:46:50.510Z,100.00
2024-03-10T19:49:21.512Z,100.00
2024-03-10T19:51:55.050Z,100.00
2024-03-10T19:54:25.615Z,100.00
2024-03-10T19:56:56.540Z,100.00
2024-03-10T19:59:27.078Z,100.00
2024-03-10T20:01:57.620Z,100.00
2024-03-10T20:04:28.192Z,100.00
2024-03-10T20:07:01.820Z,100.00
2024-03-10T20:09:33.414Z,100.00
2024-03-10T20:12:05.877Z,100.00
2024-03-10T20:14:36.707Z,100.00
2024-03-10T20:17:07.559Z,100.00
2024-03-10T20:19:38.365Z,100.00
2024-03-10T20:22:12.010Z,100.00
2024-03-10T20:24:42.596Z,100.00
2024-03-10T20:27:13.598Z,100.00
2024-03-10T20:29:44.916Z,100.00
2024-03-10T20:32:15.450Z,100.00
2024-03-10T20:34:46.020Z,100.00
2024-03-10T20:37:19.321Z,100.00
2024-03-10T20:39:52.638Z,100.00
2024-03-10T20:42:23.321Z,100.00
2024-03-10T20:44:54.907Z,100.00
2024-03-10T20:47:26.298Z,100.00
2024-03-10T20:49:56.958Z,100.00
2024-03-10T20:52:30.197Z,100.00
2024-03-10T20:55:00.899Z,100.00
2024-03-10T20:57:31.612Z,100.00
2024-03-10T21:00:05.068Z,100.00
2024-03-10T21:02:35.568Z,100.00
2024-03-10T21:05:06.342Z,100.00
2024-03-10T21:07:40.490Z,100.00
2024-03-10T21:10:16.399Z,100.00
2024-03-10T21:12:47.644Z,100.00
2024-03-10T21:15:20.055Z,100.00
2024-03-10T21:17:53.029Z,100.00
2024-03-10T21:20:24.936Z,100.00
2024-03-10T21:22:58.311Z,100.00
2024-03-10T21:25:30.017Z,100.00
2024-03-10T21:28:01.064Z,100.00
2024-03-10T21:30:32.577Z,100.00
2024-03-10T21:33:03.143Z,100.00
2024-03-10T21:35:33.676Z,100.00
2024-03-10T21:38:09.084Z,100.00
2024-03-10T21:40:40.442Z,100.00
2024-03-10T21:43:12.411Z,100.00
2024-03-10T21:45:46.541Z,100.00
2024-03-10T21:48:17.162Z,100.00
2024-03-10T21:50:48.068Z,100.00
2024-03-10T21:53:21.991Z,100.00
2024-03-10T21:55:53.635Z,100.00
2024-03-10T21:58:24.224Z,100.00
2024-03-10T22:00:54.892Z,100.00
2024-03-10T22:03:26.288Z,100.00
2024-03-10T22:05:56.800Z,100.00
2024-03-10T22:08:29.928Z,100.00
2024-03-10T22:11:00.510Z,100.00
2024-03-10T22:13:31.825Z,100.00
2024-03-10T22:16:02.583Z,100.00
2024-03-10T22:18:34.405Z,100.00
2024-03-10T22:21:05.710Z,100.00
2024-03-10T22:23:38.912Z,100.00
2024-03-10T22:26:10.399Z,100.00
2024-03-10T22:28:42.666Z,100.00
2024-03-10T22:31:13.755Z,100.00
2024-03-10T22:38:45.878Z,100.00
2024-03-10T22:41:16.886Z,100.00
2024-03-10T22:43:47.714Z,100.00
2024-03-10T22:46:18.353Z,100.00
2024-03-10T22:48:49.178Z,100.00
2024-03-10T22:51:19.742Z,100.00
2024-03-10T22:53:52.943Z,100.00
2024-03-10T22:56:23.751Z,100.00
2024-03-10T22:58:54.290Z,100.00
2024-03-10T23:01:24.863Z,100.00
2024-03-10T23:03:55.519Z,100.00
2024-03-10T23:06:26.141Z,100.00
2024-03-10T23:08:59.615Z,100.00
2024-03-10T23:11:30.344Z,100.00
2024-03-10T23:14:01.373Z,100.00
2024-03-10T23:16:31.979Z,100.00
2024-03-10T23:19:03.571Z,100.00
2024-03-10T23:21:37.025Z,100.00
2024-03-10T23:24:13.854Z,100.00
2024-03-10T23:26:46.288Z,100.00
2024-03-10T23:29:18.441Z,100.00
2024-03-10T23:31:52.479Z,100.00
2024-03-10T23:34:23.411Z,100.00
2024-03-10T23:36:53.878Z,100.00
2024-03-10T23:39:27.081Z,100.00
2024-03-10T23:41:57.589Z,100.00
2024-03-10T23:44:28.140Z,100.00
2024-03-10T23:46:58.926Z,100.00
2024-03-10T23:49:29.426Z,100.00
2024-03-10T23:51:59.881Z,100.00
2024-03-10T23:54:33.068Z,100.00
2024-03-10T23:57:03.982Z,100.00
2024-03-10T23:59:35.104Z,100.00
